createdAt,value
2018-05-04T00:00:56.190Z,92.30
2018-05-04T00:03:24.242Z,92.30
2018-05-04T00:05:52.139Z,92.00
2018-05-04T00:08:19.684Z,92.00
2018-05-04T00:10:47.241Z,92.30
2018-05-04T00:13:17.262Z,92.30
2018-05-04T00:15:44.805Z,92.30
2018-05-04T00:18:12.328Z,92.20
2018-05-04T00:20:39.898Z,92.20
2018-05-04T00:23:07.414Z,92.10
2018-05-04T00:25:34.933Z,91.80
2018-05-04T00:28:02.970Z,91.90
2018-05-04T00:30:30.499Z,92.00
2018-05-04T00:32:58.018Z,92.10
2018-05-04T00:35:25.566Z,92.20
2018-05-04T00:37:53.852Z,92.10
2018-05-04T00:40:21.398Z,92.10
2018-05-04T00:42:49.730Z,92.20
2018-05-04T00:45:17.278Z,92.20
2018-05-04T00:47:44.807Z,92.10
2018-05-04T00:50:12.694Z,92.40
2018-05-04T00:52:40.218Z,92.00
2018-05-04T00:55:08.528Z,91.90
2018-05-04T00:57:36.083Z,91.90
2018-05-04T01:00:03.598Z,91.70
2018-05-04T01:02:31.879Z,91.70
2018-05-04T01:05:00.895Z,91.60
2018-05-04T01:07:28.425Z,91.60
2018-05-04T01:09:56.719Z,91.40
2018-05-04T01:12:24.479Z,91.40
2018-05-04T01:14:52.762Z,91.20
2018-05-04T01:17:20.306Z,91.20
2018-05-04T01:19:48.618Z,90.90
2018-05-04T01:22:16.411Z,90.90
2018-05-04T01:24:43.940Z,91.10
2018-05-04T01:27:11.503Z,91.00
2018-05-04T01:29:39.023Z,90.70
2018-05-04T01:32:07.311Z,91.10
2018-05-04T01:34:34.913Z,91.10
2018-05-04T01:37:02.442Z,90.90
2018-05-04T01:39:29.971Z,90.70
2018-05-04T01:41:57.535Z,90.80
2018-05-04T01:44:25.846Z,90.80
2018-05-04T01:46:53.366Z,90.70
2018-05-04T01:49:21.690Z,90.80
2018-05-04T01:51:50.021Z,90.70
2018-05-04T01:54:18.311Z,91.20
2018-05-04T01:56:47.133Z,91.30
2018-05-04T01:59:16.494Z,91.30
2018-05-04T02:01:44.791Z,91.20
2018-05-04T02:04:12.338Z,91.20
2018-05-04T02:06:40.382Z,90.90
2018-05-04T02:09:07.907Z,91.10
2018-05-04T02:11:35.452Z,91.20
2018-05-04T02:16:37.426Z,91.30
2018-05-04T02:19:04.947Z,91.10
2018-05-04T02:21:33.241Z,91.00
2018-05-04T02:24:00.792Z,91.00
2018-05-04T02:26:29.078Z,91.10
2018-05-04T02:28:56.601Z,91.10
2018-05-04T02:31:24.175Z,91.20
2018-05-04T02:33:52.462Z,90.90
2018-05-04T02:36:20.764Z,90.80
2018-05-04T02:38:48.938Z,90.70
2018-05-04T02:41:16.467Z,90.70
2018-05-04T02:43:44.751Z,90.60
2018-05-04T02:46:13.998Z,90.50
2018-05-04T02:48:41.528Z,90.50
2018-05-04T02:51:09.034Z,90.40
2018-05-04T02:53:37.367Z,91.00
2018-05-04T02:56:05.908Z,90.70
2018-05-04T02:58:34.195Z,91.00
2018-05-04T03:01:02.570Z,91.10
2018-05-04T03:03:30.095Z,91.10
2018-05-04T03:05:57.619Z,91.10
2018-05-04T03:08:25.766Z,91.30
2018-05-04T03:10:53.302Z,91.20
2018-05-04T03:13:21.609Z,91.40
2018-05-04T03:15:49.155Z,91.40
2018-05-04T03:18:16.693Z,91.50
2018-05-04T03:20:44.986Z,91.50
2018-05-04T03:23:14.829Z,91.40
2018-05-04T03:25:42.347Z,91.40
2018-05-04T03:28:10.639Z,91.40
2018-05-04T03:30:38.298Z,91.40
2018-05-04T03:33:06.590Z,91.60
2018-05-04T03:35:34.106Z,91.50
2018-05-04T03:38:01.646Z,91.60
2018-05-04T03:40:29.926Z,91.80
2018-05-04T03:42:57.560Z,91.80
2018-05-04T03:45:25.438Z,92.00
2018-05-04T03:47:52.953Z,92.20
2018-05-04T03:50:21.247Z,92.30
2018-05-04T03:52:48.828Z,92.30
2018-05-04T03:55:16.522Z,92.40
2018-05-04T03:57:55.943Z,92.50
2018-05-04T04:00:35.328Z,92.30
2018-05-04T04:03:16.138Z,92.30
2018-05-04T04:05:43.679Z,92.30
2018-05-04T04:08:11.203Z,92.10
2018-05-04T04:10:39.855Z,92.30
2018-05-04T04:13:07.390Z,92.30
2018-05-04T04:15:34.903Z,92.40
2018-05-04T04:18:02.505Z,92.40
2018-05-04T04:20:30.082Z,92.40
2018-05-04T04:22:57.589Z,92.80
2018-05-04T04:25:25.942Z,92.90
2018-05-04T04:27:53.479Z,92.90
2018-05-04T04:30:20.997Z,92.90
2018-05-04T04:32:48.622Z,93.10
2018-05-04T04:35:16.923Z,93.10
2018-05-04T04:37:45.212Z,93.00
2018-05-04T04:40:13.689Z,93.00
2018-05-04T04:42:41.303Z,93.30
2018-05-04T04:45:08.842Z,93.50
2018-05-04T04:47:36.443Z,93.80
2018-05-04T04:50:04.757Z,94.30
2018-05-04T04:52:32.315Z,94.30
2018-05-04T04:54:59.958Z,94.50
2018-05-04T04:57:27.485Z,94.50
2018-05-04T04:59:57.451Z,94.70
2018-05-04T05:02:25.083Z,94.60
2018-05-04T05:04:53.375Z,94.10
2018-05-04T05:07:21.015Z,94.10
2018-05-04T05:09:49.650Z,93.80
2018-05-04T05:12:17.767Z,93.80
2018-05-04T05:14:45.302Z,93.60
2018-05-04T05:17:13.777Z,93.60
2018-05-04T05:19:41.307Z,93.60
2018-05-04T05:22:08.834Z,93.30
2018-05-04T05:24:36.391Z,93.40
2018-05-04T05:27:03.986Z,93.40
2018-05-04T05:29:31.559Z,93.50
2018-05-04T05:31:59.103Z,93.80
2018-05-04T05:34:27.012Z,93.60
2018-05-04T05:36:54.530Z,93.50
2018-05-04T05:39:22.088Z,93.70
2018-05-04T05:41:49.616Z,94.00
2018-05-04T05:44:17.134Z,94.10
2018-05-04T05:46:44.683Z,94.10
2018-05-04T05:49:12.219Z,94.00
2018-05-04T05:51:40.086Z,94.20
2018-05-04T05:54:07.919Z,94.20
2018-05-04T05:56:35.440Z,94.30
2018-05-04T05:59:02.968Z,94.20
2018-05-04T06:01:30.507Z,94.10
2018-05-04T06:03:58.095Z,93.50
2018-05-04T06:06:26.390Z,93.40
2018-05-04T06:08:53.926Z,93.40
2018-05-04T06:11:21.444Z,93.30
2018-05-04T06:13:50.366Z,92.90
2018-05-04T06:16:18.102Z,92.90
2018-05-04T06:18:45.622Z,92.70
2018-05-04T06:21:14.567Z,92.50
2018-05-04T06:23:42.106Z,92.60
2018-05-04T06:26:09.638Z,92.30
2018-05-04T06:28:37.155Z,92.10
2018-05-04T06:31:07.045Z,92.20
2018-05-04T06:33:34.582Z,92.10
2018-05-04T06:36:02.867Z,91.70
2018-05-04T06:38:30.768Z,91.60
2018-05-04T06:40:58.316Z,91.70
2018-05-04T06:43:25.834Z,91.50
2018-05-04T06:45:53.412Z,91.50
2018-05-04T06:48:20.992Z,91.20
2018-05-04T06:50:48.626Z,91.20
2018-05-04T06:53:16.457Z,91.10
2018-05-04T06:55:44.083Z,91.00
2018-05-04T06:58:11.599Z,90.40
2018-05-04T07:00:40.043Z,88.50
2018-05-04T07:03:07.700Z,88.30
2018-05-04T07:05:35.275Z,85.30
2018-05-04T07:08:02.853Z,84.30
2018-05-04T07:10:30.398Z,83.90
2018-05-04T07:12:58.784Z,82.10
2018-05-04T07:15:26.974Z,78.80
2018-05-04T07:17:54.551Z,79.80
2018-05-04T07:20:22.875Z,82.10
2018-05-04T07:22:51.281Z,82.10
2018-05-04T07:25:19.166Z,82.40
2018-05-04T07:27:47.453Z,83.10
2018-05-04T07:30:16.543Z,83.00
2018-05-04T07:32:44.082Z,84.50
2018-05-04T07:35:12.379Z,83.80
2018-05-04T07:37:40.850Z,84.10
2018-05-04T07:40:08.440Z,84.10
2018-05-04T07:42:35.974Z,83.70
2018-05-04T07:45:04.363Z,84.20
2018-05-04T07:47:33.794Z,84.20
2018-05-04T07:50:01.321Z,84.30
2018-05-04T07:52:28.899Z,85.30
2018-05-04T07:54:56.457Z,86.00
2018-05-04T07:57:23.999Z,86.40
2018-05-04T07:59:51.547Z,87.20
2018-05-04T08:02:19.841Z,86.20
2018-05-04T08:04:47.390Z,86.20
2018-05-04T08:07:17.123Z,87.40
2018-05-04T08:09:44.646Z,88.50
2018-05-04T08:12:13.858Z,88.00
2018-05-04T08:14:41.414Z,88.00
2018-05-04T08:17:09.617Z,88.30
2018-05-04T08:19:37.867Z,87.90
2018-05-04T08:22:05.420Z,87.80
2018-05-04T08:24:32.935Z,88.40
2018-05-04T08:27:00.457Z,88.40
2018-05-04T08:29:28.323Z,89.00
2018-05-04T08:31:55.842Z,88.70
2018-05-04T08:34:24.126Z,88.90
2018-05-04T08:36:52.432Z,88.00
2018-05-04T08:39:19.966Z,87.90
2018-05-04T08:41:47.495Z,88.60
2018-05-04T08:44:16.514Z,88.30
2018-05-04T08:46:44.049Z,87.90
2018-05-04T08:49:11.589Z,87.30
2018-05-04T08:51:39.168Z,87.30
2018-05-04T08:54:06.690Z,87.40
2018-05-04T08:56:34.211Z,87.50
2018-05-04T08:59:01.781Z,86.90
2018-05-04T09:01:29.320Z,86.40
2018-05-04T09:03:56.858Z,86.30
2018-05-04T09:06:25.547Z,85.90
2018-05-04T09:08:53.071Z,85.90
2018-05-04T09:11:20.619Z,86.40
2018-05-04T09:13:48.720Z,86.90
2018-05-04T09:16:17.254Z,88.00
2018-05-04T09:18:45.120Z,87.90
2018-05-04T09:21:13.587Z,87.60
2018-05-04T09:23:41.875Z,87.10
2018-05-04T09:26:09.398Z,87.00
2018-05-04T09:28:37.712Z,86.60
2018-05-04T09:31:07.160Z,86.60
2018-05-04T09:33:34.640Z,87.10
2018-05-04T09:36:02.760Z,86.90
2018-05-04T09:38:31.190Z,87.50
2018-05-04T09:40:58.730Z,88.20
2018-05-04T09:43:26.561Z,88.50
2018-05-04T09:45:54.070Z,89.10
2018-05-04T09:48:21.595Z,89.30
2018-05-04T09:50:49.169Z,88.90
2018-05-04T09:53:17.326Z,89.10
2018-05-04T09:55:45.236Z,88.10
2018-05-04T09:58:14.919Z,87.50
2018-05-04T10:00:42.443Z,87.40
2018-05-04T10:03:09.967Z,87.00
2018-05-04T10:05:38.310Z,86.40
2018-05-04T10:08:05.832Z,86.40
2018-05-04T10:10:33.378Z,85.90
2018-05-04T10:13:01.176Z,85.30
2018-05-04T10:15:28.718Z,85.00
2018-05-04T10:17:56.255Z,84.80
2018-05-04T10:20:24.968Z,84.50
2018-05-04T10:22:52.505Z,84.30
2018-05-04T10:25:20.042Z,84.40
2018-05-04T10:27:47.595Z,84.40
2018-05-04T10:30:17.255Z,83.30
2018-05-04T10:32:44.784Z,83.30
2018-05-04T10:35:12.863Z,83.30
2018-05-04T10:37:40.382Z,83.80
2018-05-04T10:40:07.922Z,83.40
2018-05-04T10:42:36.172Z,83.40
2018-05-04T10:45:03.731Z,83.40
2018-05-04T10:47:31.255Z,84.10
2018-05-04T10:49:58.806Z,84.20
2018-05-04T10:52:27.093Z,85.40
2018-05-04T10:54:54.623Z,85.40
2018-05-04T10:57:22.183Z,85.10
2018-05-04T10:59:49.720Z,84.60
2018-05-04T11:02:17.255Z,84.50
2018-05-04T11:04:45.117Z,85.00
2018-05-04T11:07:13.559Z,84.30
2018-05-04T11:09:41.846Z,84.10
2018-05-04T11:12:09.407Z,84.10
2018-05-04T11:14:37.702Z,82.90
2018-05-04T11:17:05.252Z,82.80
2018-05-04T11:19:32.897Z,83.00
2018-05-04T11:22:00.754Z,83.00
2018-05-04T11:24:28.275Z,83.60
2018-05-04T11:26:56.235Z,84.10
2018-05-04T11:29:23.764Z,84.20
2018-05-04T11:31:51.308Z,83.90
2018-05-04T11:34:18.850Z,83.10
2018-05-04T11:36:47.155Z,83.30
2018-05-04T11:39:16.854Z,83.20
2018-05-04T11:41:45.171Z,83.40
2018-05-04T11:44:14.379Z,84.10
2018-05-04T11:46:41.973Z,84.10
2018-05-04T11:49:10.294Z,84.00
2018-05-04T11:51:37.825Z,83.90
2018-05-04T11:54:06.111Z,84.30
2018-05-04T11:56:33.717Z,84.30
2018-05-04T11:59:01.258Z,82.30
2018-05-04T12:01:28.770Z,82.30
2018-05-04T12:03:56.358Z,81.90
2018-05-04T12:06:23.882Z,82.30
2018-05-04T12:08:51.399Z,82.50
2018-05-04T12:11:19.587Z,82.30
2018-05-04T12:13:47.116Z,81.90
2018-05-04T12:16:17.299Z,82.10
2018-05-04T12:18:44.795Z,82.10
2018-05-04T12:21:12.332Z,82.50
2018-05-04T12:23:40.383Z,82.00
2018-05-04T12:26:07.920Z,81.10
2018-05-04T12:28:35.455Z,80.40
2018-05-04T12:31:03.008Z,81.00
2018-05-04T12:33:30.874Z,80.50
2018-05-04T12:35:59.021Z,81.30
2018-05-04T12:38:27.786Z,81.10
2018-05-04T12:40:55.276Z,81.20
2018-05-04T12:43:22.841Z,81.30
2018-05-04T12:45:50.380Z,81.60
2018-05-04T12:48:17.970Z,80.40
2018-05-04T12:50:45.498Z,79.70
2018-05-04T12:53:25.339Z,79.30
2018-05-04T12:55:52.796Z,78.80
2018-05-04T12:58:20.408Z,77.60
2018-05-04T13:00:47.961Z,77.20
2018-05-04T13:03:15.548Z,76.60
2018-05-04T13:05:43.087Z,76.30
2018-05-04T13:08:11.117Z,76.40
2018-05-04T13:10:38.647Z,76.20
2018-05-04T13:13:06.279Z,75.90
2018-05-04T13:15:34.466Z,75.50
2018-05-04T13:18:01.998Z,75.30
2018-05-04T13:20:29.567Z,75.90
2018-05-04T13:22:57.154Z,76.10
2018-05-04T13:25:25.081Z,76.90
2018-05-04T13:27:52.613Z,76.20
2018-05-04T13:30:20.159Z,76.80
2018-05-04T13:32:47.688Z,76.40
2018-05-04T13:35:17.357Z,75.80
2018-05-04T13:37:45.619Z,75.80
2018-05-04T13:40:15.475Z,76.60
2018-05-04T13:42:43.900Z,75.90
2018-05-04T13:45:11.447Z,75.80
2018-05-04T13:47:38.971Z,75.70
2018-05-04T13:50:06.710Z,77.20
2018-05-04T13:52:34.251Z,76.40
2018-05-04T13:55:02.301Z,76.70
2018-05-04T13:57:29.824Z,77.20
2018-05-04T13:59:58.535Z,77.80
2018-05-04T14:02:29.584Z,77.40
2018-05-04T14:04:57.915Z,75.90
2018-05-04T14:07:25.451Z,75.80
2018-05-04T14:09:52.967Z,76.10
2018-05-04T14:12:20.570Z,75.90
2018-05-04T14:14:48.259Z,76.10
2018-05-04T14:17:17.183Z,73.80
2018-05-04T14:19:44.699Z,73.80
2018-05-04T14:22:12.761Z,74.80
2018-05-04T14:24:41.085Z,74.40
2018-05-04T14:27:09.773Z,74.80
2018-05-04T14:29:37.281Z,74.80
2018-05-04T14:32:04.800Z,74.40
2018-05-04T14:34:32.512Z,74.40
2018-05-04T14:37:00.060Z,74.10
2018-05-04T14:39:27.575Z,75.00
2018-05-04T14:41:55.190Z,74.80
2018-05-04T14:44:23.192Z,74.60
2018-05-04T14:46:51.491Z,75.00
2018-05-04T14:49:19.045Z,74.90
2018-05-04T14:51:46.651Z,74.30
2018-05-04T14:54:25.405Z,74.20
2018-05-04T14:56:52.950Z,74.10
2018-05-04T14:59:20.474Z,75.00
2018-05-04T15:01:47.994Z,73.30
2018-05-04T15:04:18.568Z,72.40
2018-05-04T15:06:46.838Z,73.10
2018-05-04T15:09:17.219Z,73.50
2018-05-04T15:11:45.525Z,72.40
2018-05-04T15:14:14.647Z,72.30
2018-05-04T15:16:42.173Z,73.50
2018-05-04T15:19:09.727Z,73.50
2018-05-04T15:21:37.282Z,73.90
2018-05-04T15:24:04.802Z,73.20
2018-05-04T15:26:32.748Z,74.40
2018-05-04T15:29:00.953Z,73.60
2018-05-04T15:31:29.271Z,74.40
2018-05-04T15:33:56.811Z,74.20
2018-05-04T15:36:24.327Z,75.10
2018-05-04T15:38:51.884Z,74.50
2018-05-04T15:41:19.416Z,74.90
2018-05-04T15:43:46.934Z,75.00
2018-05-04T15:46:15.624Z,74.10
2018-05-04T15:48:50.082Z,73.80
2018-05-04T15:51:23.367Z,73.70
2018-05-04T15:53:51.414Z,72.90
2018-05-04T15:56:18.953Z,73.40
2018-05-04T15:58:46.502Z,73.40
2018-05-04T16:01:25.914Z,72.90
2018-05-04T16:17:15.668Z,74.50
2018-05-04T16:19:43.447Z,74.80
2018-05-04T16:22:11.116Z,75.20
2018-05-04T16:24:38.731Z,74.80
2018-05-04T16:27:06.248Z,75.00
2018-05-04T16:29:35.407Z,75.30
2018-05-04T16:32:03.765Z,75.30
2018-05-04T16:34:31.296Z,75.20
2018-05-04T16:36:58.956Z,75.20
2018-05-04T16:39:26.986Z,75.30
2018-05-04T16:41:54.512Z,75.40
2018-05-04T16:44:22.071Z,75.90
2018-05-04T16:46:55.403Z,76.40
2018-05-04T16:49:26.020Z,76.30
2018-05-04T16:51:53.551Z,76.30
2018-05-04T16:54:21.115Z,76.70
2018-05-04T16:56:48.639Z,76.40
2018-05-04T16:59:16.516Z,77.20
2018-05-04T17:01:44.866Z,77.40
2018-05-04T17:04:12.394Z,77.40
2018-05-04T17:06:39.916Z,77.50
2018-05-04T17:09:07.580Z,77.40
2018-05-04T17:11:35.072Z,77.80
2018-05-04T17:14:02.660Z,78.20
2018-05-04T17:16:30.240Z,78.80
2018-05-04T17:18:57.911Z,78.70
2018-05-04T17:21:25.474Z,79.10
2018-05-04T17:23:53.199Z,79.60
2018-05-04T17:26:20.734Z,79.50
2018-05-04T17:28:48.627Z,79.80
2018-05-04T17:31:17.136Z,80.20
2018-05-04T17:33:45.436Z,80.80
2018-05-04T17:36:15.457Z,80.80
2018-05-04T17:38:43.015Z,80.70
2018-05-04T17:41:10.562Z,80.90
2018-05-04T17:43:38.079Z,81.00
2018-05-04T17:46:05.678Z,80.90
2018-05-04T17:48:33.238Z,81.20
2018-05-04T17:51:00.770Z,81.50
2018-05-04T17:53:29.095Z,82.20
2018-05-04T17:55:56.671Z,82.20
2018-05-04T17:58:24.200Z,82.40
2018-05-04T18:00:51.972Z,82.50
2018-05-04T18:03:19.535Z,82.50
2018-05-04T18:05:47.096Z,82.60
2018-05-04T18:08:15.801Z,82.80
2018-05-04T18:10:43.726Z,82.80
2018-05-04T18:13:11.270Z,82.90
2018-05-04T18:15:38.808Z,83.10
2018-05-04T18:18:06.327Z,83.40
2018-05-04T18:20:34.116Z,83.50
2018-05-04T18:23:01.919Z,83.60
2018-05-04T18:25:29.635Z,83.70
2018-05-04T18:27:57.968Z,84.40
2018-05-04T18:30:26.163Z,84.30
2018-05-04T18:32:54.164Z,84.60
2018-05-04T18:35:21.787Z,84.80
2018-05-04T18:37:49.365Z,85.80
2018-05-04T18:40:18.428Z,85.60
2018-05-04T18:42:45.972Z,85.60
2018-05-04T18:45:14.684Z,85.80
2018-05-04T18:47:42.264Z,85.90
2018-05-04T18:50:09.796Z,85.70
2018-05-04T18:52:37.680Z,85.70
2018-05-04T18:55:05.754Z,86.20
2018-05-04T18:57:33.493Z,86.20
2018-05-04T19:00:01.142Z,86.20
2018-05-04T19:02:34.323Z,86.50
2018-05-04T19:05:01.948Z,86.60
2018-05-04T19:07:29.485Z,86.80
2018-05-04T19:10:00.812Z,86.90
2018-05-04T19:12:29.115Z,87.10
2018-05-04T19:14:56.642Z,87.30
2018-05-04T19:17:24.170Z,87.40
2018-05-04T19:19:51.722Z,87.70
2018-05-04T19:22:19.267Z,87.80
2018-05-04T19:24:46.795Z,88.40
2018-05-04T19:27:16.397Z,88.80
2018-05-04T19:29:43.939Z,88.60
2018-05-04T19:32:11.675Z,88.60
2018-05-04T19:34:40.771Z,88.10
2018-05-04T19:37:08.290Z,88.10
2018-05-04T19:39:35.889Z,88.20
2018-05-04T19:42:04.251Z,88.00
2018-05-04T19:44:31.891Z,88.00
2018-05-04T19:46:59.621Z,88.20
2018-05-04T19:49:27.199Z,88.50
2018-05-04T19:51:54.759Z,88.20
2018-05-04T19:54:23.338Z,88.50
2018-05-04T19:56:50.907Z,88.70
2018-05-04T19:59:18.477Z,89.10
2018-05-04T20:33:28.434Z,91.30
2018-05-04T20:35:56.943Z,91.50
2018-05-04T20:38:24.588Z,91.40
2018-05-04T20:40:52.163Z,91.40
2018-05-04T20:43:19.688Z,91.00
2018-05-04T20:45:48.731Z,91.20
2018-05-04T20:48:16.530Z,91.20
2018-05-04T20:50:44.123Z,91.10
2018-05-04T20:53:11.641Z,91.10
2018-05-04T20:55:39.578Z,91.40
2018-05-04T20:58:07.901Z,91.60
2018-05-04T21:00:35.571Z,91.50
2018-05-04T21:03:03.227Z,91.80
2018-05-04T21:05:30.783Z,91.90
2018-05-04T21:07:58.326Z,92.30
2018-05-04T21:10:25.886Z,92.30
2018-05-04T21:12:53.574Z,92.30
2018-05-04T21:15:21.581Z,92.30
2018-05-04T21:17:49.824Z,92.40
2018-05-04T21:20:17.350Z,92.50
2018-05-04T21:22:44.872Z,92.50
2018-05-04T21:25:14.129Z,92.70
2018-05-04T21:27:41.665Z,92.70
2018-05-04T21:30:09.186Z,92.80
2018-05-04T21:32:36.742Z,92.70
2018-05-04T21:35:05.045Z,93.10
2018-05-04T21:37:33.313Z,93.10
2018-05-04T21:40:01.674Z,93.10
2018-05-04T21:42:29.986Z,93.00
2018-05-04T21:44:57.535Z,92.90
2018-05-04T21:47:25.078Z,92.90
2018-05-04T21:49:52.603Z,93.00
2018-05-04T21:52:20.126Z,93.10
2018-05-04T21:54:47.666Z,93.00
2018-05-04T21:57:16.367Z,93.40
2018-05-04T21:59:43.882Z,93.40
2018-05-04T22:02:12.270Z,93.30
2018-05-04T22:04:39.792Z,93.30
2018-05-04T22:07:07.346Z,93.40
2018-05-04T22:09:34.948Z,93.60
2018-05-04T22:12:03.237Z,93.80
2018-05-04T22:14:30.758Z,93.80
2018-05-04T22:16:58.314Z,93.80
2018-05-04T22:19:25.848Z,94.00
2018-05-04T22:21:53.395Z,94.00
2018-05-04T22:24:21.290Z,93.90
2018-05-04T22:26:48.818Z,93.90
2018-05-04T22:29:16.506Z,93.90
2018-05-04T22:31:44.068Z,93.80
2018-05-04T22:34:11.595Z,93.90
2018-05-04T22:36:39.114Z,93.80
2018-05-04T22:39:08.130Z,94.00
2018-05-04T22:41:35.651Z,94.00
2018-05-04T22:44:03.186Z,94.10
2018-05-04T22:46:31.131Z,94.00
2018-05-04T22:48:58.672Z,94.20
2018-05-04T22:51:26.215Z,94.40
2018-05-04T22:53:53.766Z,94.30
2018-05-04T22:56:22.193Z,94.30
2018-05-04T22:58:49.716Z,94.30
2018-05-04T23:01:18.032Z,94.30
2018-05-04T23:03:45.546Z,94.30
2018-05-04T23:06:25.119Z,94.30
2018-05-04T23:22:29.469Z,95.40
2018-05-04T23:24:57.038Z,95.60
2018-05-04T23:27:25.325Z,95.50
2018-05-04T23:29:53.699Z,95.20
2018-05-04T23:32:21.281Z,95.20
2018-05-04T23:34:48.802Z,95.20
2018-05-04T23:37:17.314Z,94.90
2018-05-04T23:39:45.378Z,94.90
2018-05-04T23:42:13.708Z,94.70
2018-05-04T23:44:42.587Z,95.20
2018-05-04T23:47:10.122Z,95.10
2018-05-04T23:49:37.642Z,95.20
2018-05-04T23:52:05.189Z,95.10
2018-05-04T23:54:32.738Z,95.40
2018-05-04T23:57:00.260Z,95.40
2018-05-04T23:59:27.915Z,95.60
